Time;durP1;ratioP1;P1;durP2;ratioP2;P2;SDS_P1;SDS_P2;PMS_P1;PMS_P2;Temp;Humidity;BMP_temperature;BMP_pressure;BME280_temperature;BME280_humidity;BME280_pressure;Samples;Min_cycle;Max_cycle;Signal;HPM_P1;HPM_P2
2022/09/03 00:01:49;;;;;;;1.55;1.38;;;16.50;74.10;;;;;;5091275;28;20027;-52
2022/09/03 00:04:31;;;;;;;3.03;1.38;;;16.40;74.80;;;;;;5091462;28;20100;-52
2022/09/03 00:07:02;;;;;;;3.47;1.50;;;16.40;75.50;;;;;;5090394;28;20016;-52
2022/09/03 00:09:33;;;;;;;2.88;1.42;;;16.30;75.00;;;;;;5090604;28;20035;-50
2022/09/03 00:12:13;;;;;;;5.25;1.30;;;16.30;75.00;;;;;;5090840;28;20024;-52
2022/09/03 00:14:45;;;;;;;1.17;1.08;;;16.20;75.40;;;;;;5091513;28;20028;-50
2022/09/03 00:17:17;;;;;;;1.58;1.15;;;16.20;75.30;;;;;;5087170;28;20028;-53
2022/09/03 00:19:59;;;;;;;2.15;1.42;;;16.10;75.50;;;;;;5082958;28;20028;-52
2022/09/03 00:22:30;;;;;;;2.40;1.25;;;16.00;76.30;;;;;;5090953;28;20793;-52
2022/09/03 00:24:59;;;;;;;1.40;1.20;;;15.90;77.30;;;;;;5091484;28;20441;-50
2022/09/03 00:27:26;;;;;;;1.45;1.30;;;15.90;77.50;;;;;;5091256;28;20028;-52
2022/09/03 00:30:07;;;;;;;2.30;1.25;;;15.80;77.60;;;;;;5091449;28;20107;-52
2022/09/03 00:32:52;;;;;;;;;;;15.70;77.40;;;;;;5091138;28;20031;-52
2022/09/03 00:35:32;;;;;;;1.52;1.23;;;15.70;77.60;;;;;;5089803;28;19934;-51
2022/09/03 00:37:59;;;;;;;1.38;1.20;;;15.60;77.90;;;;;;5089846;28;20028;-52
2022/09/03 00:40:57;;;;;;;8.45;1.73;;;15.60;78.00;;;;;;5091377;28;20036;-52
2022/09/03 00:43:37;;;;;;;4.38;1.40;;;15.60;78.20;;;;;;5091065;28;20451;-52
2022/09/03 00:46:11;;;;;;;2.25;1.30;;;15.60;78.00;;;;;;5090976;28;20038;-52
2022/09/03 00:49:06;;;;;;;2.83;1.27;;;15.60;78.60;;;;;;5079187;28;20020;-52
2022/09/03 00:51:50;;;;;;;2.10;1.40;;;15.60;78.00;;;;;;5067425;28;20499;-52
2022/09/03 00:54:28;;;;;;;1.80;1.20;;;15.50;78.60;;;;;;5090844;28;20031;-52
2022/09/03 00:57:12;;;;;;;2.97;1.38;;;15.50;78.20;;;;;;5091171;28;20078;-52
2022/09/03 00:59:50;;;;;;;2.10;1.80;;;15.40;77.60;;;;;;5090711;28;20020;-52
2022/09/03 01:02:28;;;;;;;1.50;1.20;;;15.50;77.60;;;;;;5088505;28;20028;-52
2022/09/03 01:05:12;;;;;;;2.20;1.42;;;15.40;77.80;;;;;;5090535;28;20070;-52
2022/09/03 01:07:45;;;;;;;4.13;1.48;;;15.40;78.50;;;;;;5090351;28;20024;-52
2022/09/03 01:10:29;;;;;;;3.40;1.25;;;15.30;78.00;;;;;;5090521;28;20024;-52
2022/09/03 01:13:00;;;;;;;3.95;1.40;;;15.30;79.40;;;;;;5089933;28;20020;-52
2022/09/03 01:15:43;;;;;;;1.40;1.10;;;15.20;79.30;;;;;;5090445;28;20105;-52
2022/09/03 01:18:41;;;;;;;1.40;1.25;;;15.20;78.50;;;;;;5085804;28;20103;-52
2022/09/03 01:21:45;;;;;;;2.50;1.45;;;15.20;79.50;;;;;;5081597;28;20032;-52
2022/09/03 01:24:42;;;;;;;5.38;1.30;;;15.10;78.90;;;;;;5090184;28;20300;-50
2022/09/03 01:27:24;;;;;;;1.35;1.13;;;15.10;79.50;;;;;;5088767;28;20490;-52
2022/09/03 01:30:17;;;;;;;1.85;1.30;;;15.00;79.40;;;;;;5090211;28;20020;-52
2022/09/03 01:32:45;;;;;;;1.63;1.05;;;15.00;79.30;;;;;;5087863;28;20030;-52
2022/09/03 01:35:45;;;;;;;3.95;1.27;;;15.00;79.30;;;;;;5090002;28;20040;-50
2022/09/03 01:38:30;;;;;;;3.33;1.00;;;14.90;79.90;;;;;;5090167;28;20454;-52
2022/09/03 01:44:10;;;;;;;5.13;1.25;;;14.90;79.70;;;;;;5089941;28;20209;-52
2022/09/03 01:46:39;;;;;;;1.83;1.45;;;14.90;79.80;;;;;;5089841;28;20031;-52
2022/09/03 01:49:27;;;;;;;1.63;1.48;;;14.80;80.50;;;;;;5076828;28;20073;-52
2022/09/03 01:52:12;;;;;;;2.63;1.40;;;14.70;81.80;;;;;;5048710;28;20028;-52
2022/09/03 01:54:52;;;;;;;2.17;1.15;;;14.60;81.30;;;;;;5056557;28;20368;-52
2022/09/03 01:57:37;;;;;;;1.55;1.30;;;14.60;81.80;;;;;;5079323;28;20475;-52
2022/09/03 02:00:12;;;;;;;3.10;1.55;;;14.50;81.90;;;;;;5089449;28;20494;-52
2022/09/03 02:02:39;;;;;;;3.70;1.50;;;14.50;82.30;;;;;;5087125;28;20028;-52
2022/09/03 02:05:13;;;;;;;1.55;1.33;;;14.40;82.50;;;;;;5087990;28;20058;-51
2022/09/03 02:07:47;;;;;;;4.28;1.50;;;14.30;82.60;;;;;;5089367;28;20040;-50
2022/09/03 02:10:23;;;;;;;2.10;1.40;;;14.30;83.50;;;;;;5089223;28;20047;-50
2022/09/03 02:12:54;;;;;;;4.03;1.30;;;14.20;83.40;;;;;;5088611;28;20058;-51
2022/09/03 02:15:20;;;;;;;;;;;14.30;83.10;;;;;;5089649;28;20080;-50
2022/09/03 02:17:49;;;;;;;2.90;1.67;;;14.20;84.10;;;;;;5088323;28;19915;-52
2022/09/03 02:20:19;;;;;;;1.67;1.58;;;14.10;83.60;;;;;;5089191;28;20043;-52
2022/09/03 02:22:46;;;;;;;3.30;1.42;;;14.10;85.00;;;;;;5088698;28;20039;-52
2022/09/03 02:25:13;;;;;;;1.27;1.17;;;14.00;84.10;;;;;;5087783;28;20028;-52
2022/09/03 02:27:40;;;;;;;2.30;1.60;;;14.00;85.10;;;;;;5081158;28;20067;-52
2022/09/03 02:30:07;;;;;;;1.75;1.40;;;13.90;85.50;;;;;;5088982;28;20166;-50
2022/09/03 02:32:33;;;;;;;2.97;1.60;;;13.80;85.90;;;;;;5088152;28;20028;-51
2022/09/03 02:34:58;;;;;;;1.95;1.70;;;13.80;85.60;;;;;;5089054;28;20035;-52
2022/09/03 02:37:24;;;;;;;2.08;1.45;;;13.70;86.40;;;;;;5087580;28;20028;-52
2022/09/03 02:39:50;;;;;;;2.13;1.48;;;13.60;86.80;;;;;;5089103;28;20115;-52
2022/09/03 02:42:17;;;;;;;2.20;1.60;;;13.60;87.00;;;;;;5088328;28;20028;-51
2022/09/03 02:44:59;;;;;;;2.55;1.48;;;13.60;86.90;;;;;;5088959;28;20388;-52
2022/09/03 02:47:30;;;;;;;4.65;1.52;;;13.60;86.70;;;;;;5085882;28;20408;-49
2022/09/03 02:49:56;;;;;;;1.40;1.30;;;13.60;86.70;;;;;;5076886;28;20017;-52
2022/09/03 02:52:22;;;;;;;4.18;1.50;;;13.60;86.80;;;;;;5086075;28;20077;-51
2022/09/03 02:54:47;;;;;;;1.38;1.27;;;13.50;87.10;;;;;;5088599;28;20024;-52
2022/09/03 02:57:15;;;;;;;1.60;1.27;;;13.50;87.90;;;;;;5088656;28;20508;-52
2022/09/03 02:59:43;;;;;;;2.10;1.35;;;13.50;88.60;;;;;;5088489;28;20039;-51
2022/09/03 03:02:10;;;;;;;1.55;1.20;;;13.40;88.30;;;;;;5087873;28;20174;-52
2022/09/03 03:04:36;;;;;;;1.30;1.20;;;13.40;88.50;;;;;;5088394;28;20395;-52
2022/09/03 03:07:01;;;;;;;1.90;1.30;;;13.30;88.70;;;;;;5088782;28;20038;-52
2022/09/03 03:09:27;;;;;;;3.50;1.40;;;13.40;89.00;;;;;;5088554;28;20028;-52
2022/09/03 03:11:54;;;;;;;5.55;2.17;;;13.30;88.90;;;;;;5087734;28;20024;-50
2022/09/03 03:14:21;;;;;;;2.30;1.80;;;13.30;88.70;;;;;;5088341;28;20269;-53
2022/09/03 03:16:47;;;;;;;3.40;1.83;;;13.30;89.10;;;;;;5088276;28;20471;-52
2022/09/03 03:19:13;;;;;;;5.10;1.60;;;13.30;89.90;;;;;;5088647;28;20051;-52
2022/09/03 03:21:39;;;;;;;2.38;1.40;;;13.20;89.60;;;;;;5087818;28;20081;-51
2022/09/03 03:24:06;;;;;;;2.22;1.30;;;13.20;89.90;;;;;;5088349;28;20107;-53
2022/09/03 03:26:31;;;;;;;1.45;1.35;;;13.10;90.40;;;;;;5075681;28;20049;-52
2022/09/03 03:28:59;;;;;;;2.33;1.45;;;13.10;90.20;;;;;;5069166;28;20067;-52
2022/09/03 03:31:26;;;;;;;2.88;1.45;;;13.10;90.60;;;;;;5071021;28;20380;-51
2022/09/03 03:33:57;;;;;;;1.95;1.45;;;13.10;90.50;;;;;;5071583;28;20021;-52
2022/09/03 03:36:23;;;;;;;;;;;13.00;90.50;;;;;;5067582;28;20031;-52
2022/09/03 03:38:53;;;;;;;1.88;1.40;;;13.00;90.60;;;;;;5071343;28;19912;-52
2022/09/03 03:41:33;;;;;;;2.10;1.90;;;13.00;90.80;;;;;;5070428;28;20082;-52
2022/09/03 03:44:01;;;;;;;2.97;1.63;;;13.00;90.90;;;;;;5069220;28;20471;-52
2022/09/03 03:46:35;;;;;;;3.05;1.40;;;13.00;91.40;;;;;;5071487;28;20154;-51
2022/09/03 03:49:07;;;;;;;3.90;2.10;;;12.90;91.40;;;;;;5070299;28;20104;-51
2022/09/03 03:51:35;;;;;;;1.77;1.40;;;12.90;91.50;;;;;;5072953;28;20033;-49
2022/09/03 03:54:01;;;;;;;3.00;1.73;;;12.80;91.50;;;;;;5071124;28;20096;-51
2022/09/03 03:56:26;;;;;;;2.95;1.50;;;12.80;91.70;;;;;;5071099;28;20100;-52
2022/09/03 03:58:53;;;;;;;5.25;1.60;;;12.80;92.00;;;;;;5071107;28;20490;-52
2022/09/03 04:01:24;;;;;;;6.28;2.15;;;12.70;92.10;;;;;;5070402;28;20029;-54
2022/09/03 04:03:51;;;;;;;4.72;1.65;;;12.70;92.10;;;;;;5069566;28;20016;-52
2022/09/03 04:06:19;;;;;;;1.65;1.25;;;12.70;92.20;;;;;;5070972;28;20029;-52
2022/09/03 04:08:46;;;;;;;2.25;1.50;;;12.70;92.50;;;;;;5068249;28;20036;-51
2022/09/03 04:11:14;;;;;;;3.17;1.65;;;12.70;92.50;;;;;;5070276;28;20265;-53
2022/09/03 04:13:42;;;;;;;1.88;1.67;;;12.70;92.80;;;;;;5069580;28;20028;-52
2022/09/03 04:16:13;;;;;;;3.38;1.60;;;12.60;92.60;;;;;;5071168;28;20156;-50
2022/09/03 04:18:40;;;;;;;3.83;1.58;;;12.60;93.10;;;;;;5067597;28;20429;-52
2022/09/03 04:21:14;;;;;;;1.90;1.13;;;12.60;93.10;;;;;;5080820;28;20020;-52
2022/09/03 04:23:43;;;;;;;2.63;1.70;;;12.50;93.30;;;;;;5090230;28;20024;-51
2022/09/03 04:26:10;;;;;;;1.95;1.33;;;12.50;93.60;;;;;;5067682;28;20033;-52
2022/09/03 04:28:36;;;;;;;2.53;1.65;;;12.50;93.70;;;;;;5070638;28;20116;-52
2022/09/03 04:31:07;;;;;;;5.13;1.80;;;12.50;93.70;;;;;;5069295;28;20448;-52
2022/09/03 04:33:34;;;;;;;2.60;1.65;;;12.50;93.80;;;;;;5070177;28;20025;-52
2022/09/03 04:36:04;;;;;;;2.60;1.50;;;12.50;94.00;;;;;;5069219;28;20365;-52
2022/09/03 04:38:31;;;;;;;3.23;1.63;;;12.50;94.20;;;;;;5070326;28;20029;-53
2022/09/03 04:40:58;;;;;;;2.13;1.33;;;12.40;94.20;;;;;;5068215;28;20073;-52
2022/09/03 04:43:23;;;;;;;1.92;1.50;;;12.40;94.60;;;;;;5070035;28;20031;-51
2022/09/03 04:45:49;;;;;;;4.57;1.33;;;12.40;94.80;;;;;;5069960;28;20395;-52
2022/09/03 04:48:14;;;;;;;1.95;1.50;;;12.40;94.80;;;;;;5068861;28;20522;-52
2022/09/03 04:50:40;;;;;;;4.50;1.48;;;12.40;95.10;;;;;;5076504;28;20100;-53
2022/09/03 04:53:06;;;;;;;2.88;1.67;;;12.30;95.20;;;;;;5076393;28;20021;-52
2022/09/03 04:55:34;;;;;;;4.70;1.40;;;12.30;95.00;;;;;;5069753;28;20025;-52
2022/09/03 04:57:59;;;;;;;5.35;1.55;;;12.30;95.20;;;;;;5078733;28;20024;-53
2022/09/03 05:00:25;;;;;;;3.00;1.85;;;12.40;95.40;;;;;;5072417;28;20039;-53
2022/09/03 05:02:50;;;;;;;1.67;1.48;;;12.30;95.50;;;;;;5066246;28;20052;-52
2022/09/03 05:05:16;;;;;;;1.88;1.58;;;12.30;95.80;;;;;;5064461;28;20024;-52
2022/09/03 05:07:42;;;;;;;3.42;1.33;;;12.30;95.80;;;;;;5068752;28;20029;-52
2022/09/03 05:10:12;;;;;;;2.60;1.75;;;12.30;95.80;;;;;;5065911;28;20028;-52
2022/09/03 05:12:37;;;;;;;2.42;1.50;;;12.30;96.00;;;;;;5064238;28;20036;-52
2022/09/03 05:15:04;;;;;;;1.95;1.55;;;12.40;96.10;;;;;;5051095;28;20033;-52
2022/09/03 05:17:33;;;;;;;4.25;1.92;;;12.40;96.30;;;;;;5050192;28;20025;-52
2022/09/03 05:19:58;;;;;;;3.47;1.95;;;12.40;96.50;;;;;;5066279;28;20095;-52
2022/09/03 05:22:24;;;;;;;1.98;1.52;;;12.40;96.10;;;;;;5069415;28;20112;-52
2022/09/03 05:24:49;;;;;;;1.60;1.40;;;12.50;96.30;;;;;;5062541;28;20028;-51
2022/09/03 05:27:15;;;;;;;3.65;1.90;;;12.50;96.40;;;;;;5062763;28;20112;-52
2022/09/03 05:29:42;;;;;;;7.00;2.00;;;12.50;96.60;;;;;;5061203;28;20059;-52
2022/09/03 05:32:08;;;;;;;5.43;1.60;;;12.50;96.50;;;;;;5078522;28;20028;-51
2022/09/03 05:34:34;;;;;;;1.92;1.50;;;12.50;96.50;;;;;;5059788;28;20464;-51
2022/09/03 05:36:59;;;;;;;3.92;2.30;;;12.60;96.50;;;;;;5060436;28;20036;-52
2022/09/03 05:39:25;;;;;;;2.25;1.77;;;12.60;96.50;;;;;;5060389;28;20044;-52
2022/09/03 05:41:52;;;;;;;5.43;1.75;;;12.60;96.50;;;;;;5057599;28;20531;-51
2022/09/03 05:44:17;;;;;;;2.40;1.73;;;12.60;97.00;;;;;;5062512;28;20027;-49
2022/09/03 05:46:43;;;;;;;2.97;1.90;;;12.70;96.70;;;;;;5063149;28;20016;-52
2022/09/03 05:49:10;;;;;;;2.83;1.60;;;12.70;96.60;;;;;;5059277;28;20376;-50
2022/09/03 05:51:38;;;;;;;4.40;1.67;;;12.70;96.70;;;;;;5065155;28;20024;-51
2022/09/03 05:54:04;;;;;;;3.63;2.13;;;12.70;96.60;;;;;;5069404;28;20553;-52
2022/09/03 05:56:31;;;;;;;3.63;1.90;;;12.80;96.80;;;;;;5067987;28;20025;-52
2022/09/03 05:59:04;;;;;;;2.50;1.80;;;12.90;96.90;;;;;;5069268;28;20024;-52
2022/09/03 06:01:32;;;;;;;4.45;1.70;;;12.90;96.90;;;;;;5066353;28;20024;-53
2022/09/03 06:04:06;;;;;;;3.45;1.75;;;12.90;96.70;;;;;;5054538;28;20025;-51
2022/09/03 06:06:34;;;;;;;3.28;2.38;;;13.00;96.70;;;;;;5066099;28;20027;-51
2022/09/03 06:09:03;;;;;;;1.80;1.70;;;13.00;96.60;;;;;;5068222;28;20017;-52
2022/09/03 06:11:31;;;;;;;10.10;2.03;;;13.10;96.90;;;;;;5067611;28;20028;-52
2022/09/03 06:14:03;;;;;;;2.88;1.50;;;13.10;97.50;;;;;;5067470;28;20115;-51
2022/09/03 06:16:30;;;;;;;1.85;1.50;;;13.20;96.60;;;;;;5068558;28;20519;-50
2022/09/03 06:18:56;;;;;;;2.50;1.80;;;13.20;97.00;;;;;;5066975;28;20206;-50
2022/09/03 06:21:22;;;;;;;2.95;1.90;;;13.30;96.80;;;;;;5075788;28;20029;-52
2022/09/03 06:23:52;;;;;;;1.70;1.60;;;13.30;96.90;;;;;;5088430;28;20106;-53
2022/09/03 06:26:19;;;;;;;3.40;1.90;;;13.30;96.90;;;;;;5087880;28;20035;-52
2022/09/03 06:28:46;;;;;;;4.63;1.92;;;13.40;96.80;;;;;;5082106;28;20093;-51
2022/09/03 06:31:14;;;;;;;2.92;2.10;;;13.50;96.80;;;;;;5067376;28;20008;-53
2022/09/03 06:33:41;;;;;;;3.38;1.80;;;13.50;96.60;;;;;;5066212;28;20499;-52
2022/09/03 06:36:12;;;;;;;4.60;2.50;;;13.60;96.80;;;;;;5065481;28;20032;-52
2022/09/03 06:38:39;;;;;;;4.25;1.95;;;13.60;96.70;;;;;;5065043;28;20019;-52
2022/09/03 06:41:10;;;;;;;1.98;1.73;;;13.60;96.50;;;;;;5066687;28;20143;-51
2022/09/03 06:43:38;;;;;;;3.08;1.67;;;13.70;96.40;;;;;;5067752;28;20082;-51
2022/09/03 06:46:10;;;;;;;3.92;2.10;;;13.80;96.30;;;;;;5066397;28;20135;-50
2022/09/03 06:48:37;;;;;;;3.45;1.70;;;13.90;96.10;;;;;;5067251;28;20364;-51
2022/09/03 06:51:05;;;;;;;3.67;2.75;;;14.00;96.10;;;;;;5067514;28;20182;-51
2022/09/03 06:53:34;;;;;;;3.85;2.10;;;14.10;96.00;;;;;;5068854;28;20058;-50
2022/09/03 06:56:02;;;;;;;3.75;1.98;;;14.20;95.80;;;;;;5067432;28;20585;-51
2022/09/03 06:58:39;;;;;;;2.80;2.17;;;14.30;95.40;;;;;;5067995;28;20016;-52
2022/09/03 07:01:07;;;;;;;4.82;2.08;;;14.40;94.80;;;;;;5066998;28;20487;-52
2022/09/03 07:03:34;;;;;;;5.05;2.00;;;14.50;94.80;;;;;;5060639;28;20104;-52
2022/09/03 07:06:00;;;;;;;3.50;2.35;;;14.60;95.10;;;;;;5046224;28;20406;-52
2022/09/03 07:08:26;;;;;;;3.90;2.00;;;14.70;94.50;;;;;;5047980;28;20021;-52
2022/09/03 07:10:52;;;;;;;3.45;1.80;;;14.80;94.40;;;;;;5047208;28;20036;-52
2022/09/03 07:13:19;;;;;;;3.55;2.17;;;14.90;94.20;;;;;;5047955;28;20033;-52
2022/09/03 07:15:44;;;;;;;4.60;1.60;;;15.00;94.00;;;;;;5047211;28;20477;-51
2022/09/03 07:18:09;;;;;;;1.98;1.77;;;15.10;94.10;;;;;;5047360;28;20029;-49
2022/09/03 07:20:35;;;;;;;4.47;2.13;;;15.20;93.90;;;;;;5070064;28;20075;-52
2022/09/03 07:23:00;;;;;;;9.70;2.08;;;15.30;93.70;;;;;;5082614;28;20043;-52
2022/09/03 07:25:27;;;;;;;2.78;1.92;;;15.50;93.60;;;;;;5085568;28;20423;-52
2022/09/03 07:27:53;;;;;;;2.58;1.98;;;15.70;93.10;;;;;;5087916;28;20243;-52
2022/09/03 07:30:19;;;;;;;4.18;2.10;;;16.00;92.70;;;;;;5088006;28;20064;-52
2022/09/03 07:32:45;;;;;;;5.75;1.95;;;16.50;92.10;;;;;;5087308;28;20076;-52
2022/09/03 07:35:12;;;;;;;7.20;2.13;;;17.00;91.10;;;;;;5085770;28;20016;-52
2022/09/03 07:37:40;;;;;;;4.50;1.92;;;17.60;89.90;;;;;;5087609;28;20011;-52
2022/09/03 07:40:06;;;;;;;4.05;1.73;;;18.10;87.20;;;;;;5087424;28;20390;-51
2022/09/03 07:42:34;;;;;;;4.25;2.05;;;18.30;86.30;;;;;;5087157;28;20021;-52
2022/09/03 07:45:04;;;;;;;4.05;1.73;;;18.40;86.50;;;;;;5087819;28;20031;-52
2022/09/03 07:47:30;;;;;;;3.50;1.75;;;18.70;85.00;;;;;;5087861;28;20020;-52
2022/09/03 07:49:55;;;;;;;7.47;1.85;;;19.50;81.70;;;;;;5082206;28;20466;-52
2022/09/03 07:52:21;;;;;;;8.43;2.08;;;19.90;79.90;;;;;;5077118;28;20505;-52
2022/09/03 07:54:47;;;;;;;2.72;1.42;;;20.30;76.70;;;;;;5087233;28;20103;-52
2022/09/03 07:57:12;;;;;;;3.03;1.58;;;20.80;75.80;;;;;;5087798;28;20108;-52
2022/09/03 07:59:38;;;;;;;3.63;1.52;;;21.10;73.60;;;;;;5087715;28;20429;-52
2022/09/03 08:02:04;;;;;;;3.97;1.50;;;21.60;72.40;;;;;;5086713;28;20499;-53
2022/09/03 08:04:31;;;;;;;230.18;181.50;;;22.30;71.40;;;;;;5078581;28;20025;-53
2022/09/03 08:06:58;;;;;;;61.40;44.28;;;22.90;69.50;;;;;;5045730;28;20055;-53
2022/09/03 08:09:24;;;;;;;3.60;2.60;;;23.90;65.40;;;;;;5047024;28;20040;-55
2022/09/03 08:11:49;;;;;;;7.18;1.92;;;24.50;63.60;;;;;;5046158;28;20082;-53
2022/09/03 08:14:15;;;;;;;2.60;1.80;;;24.70;62.90;;;;;;5047557;28;20032;-53
2022/09/03 08:16:44;;;;;;;3.80;1.50;;;25.80;59.50;;;;;;5049119;28;20552;-54
2022/09/03 08:19:12;;;;;;;3.53;1.30;;;26.50;59.00;;;;;;5053074;28;20033;-53
2022/09/03 08:21:40;;;;;;;4.18;1.48;;;27.50;57.00;;;;;;5075018;28;20633;-54
2022/09/03 08:24:06;;;;;;;3.63;1.98;;;27.80;55.00;;;;;;5070174;28;20195;-53
2022/09/03 08:26:34;;;;;;;3.45;1.55;;;28.60;52.50;;;;;;5070496;28;20024;-54
2022/09/03 08:29:00;;;;;;;5.90;1.73;;;29.20;51.90;;;;;;5070254;28;20057;-54
2022/09/03 08:31:28;;;;;;;2.17;1.40;;;29.90;52.10;;;;;;5069601;28;20485;-54
2022/09/03 08:33:56;;;;;;;2.15;1.27;;;30.60;48.80;;;;;;5068703;28;20570;-54
2022/09/03 08:36:30;;;;;;;9.48;1.98;;;30.50;49.00;;;;;;5068191;28;20047;-55
2022/09/03 08:38:57;;;;;;;32.30;28.20;;;31.50;49.10;;;;;;5070204;28;20033;-54
2022/09/03 08:41:44;;;;;;;42.30;34.75;;;31.50;46.50;;;;;;5069563;28;20103;-54
2022/09/03 08:44:21;;;;;;;7.07;1.60;;;32.80;45.90;;;;;;5070291;28;20400;-54
2022/09/03 08:47:21;;;;;;;3.50;1.42;;;31.20;45.50;;;;;;5070110;28;20032;-54
2022/09/03 08:50:06;;;;;;;5.50;1.17;;;31.40;47.20;;;;;;5069849;28;20024;-54
2022/09/03 08:52:37;;;;;;;2.80;1.30;;;32.60;45.80;;;;;;5081156;28;20027;-54
2022/09/03 08:55:30;;;;;;;2.40;1.15;;;33.90;44.20;;;;;;5089956;28;20032;-54
2022/09/03 08:58:04;;;;;;;4.55;1.30;;;34.80;43.30;;;;;;5089918;28;20095;-54
2022/09/03 09:01:01;;;;;;;2.08;1.45;;;35.40;41.50;;;;;;5067094;28;20094;-54
2022/09/03 09:04:04;;;;;;;4.97;1.40;;;36.20;41.30;;;;;;5069099;28;20047;-54
2022/09/03 09:06:33;;;;;;;1.67;1.30;;;35.90;40.10;;;;;;5059759;28;20392;-54
2022/09/03 09:09:22;;;;;;;2.35;1.30;;;36.00;40.30;;;;;;5063777;28;20395;-54
2022/09/03 09:12:19;;;;;;;3.95;1.27;;;36.00;40.20;;;;;;5067729;28;20021;-53
2022/09/03 09:15:07;;;;;;;4.35;1.60;;;36.20;39.20;;;;;;5049306;28;20036;-53
2022/09/03 09:17:44;;;;;;;5.93;1.77;;;36.40;39.30;;;;;;5062008;28;20082;-54
2022/09/03 09:20:18;;;;;;;3.63;1.50;;;37.00;39.10;;;;;;5076537;28;20020;-54
2022/09/03 09:22:48;;;;;;;2.70;1.30;;;36.50;39.20;;;;;;5075220;28;20051;-54
2022/09/03 09:25:20;;;;;;;4.18;1.67;;;37.30;38.40;;;;;;5089071;28;20032;-55
2022/09/03 09:27:52;;;;;;;3.35;1.65;;;37.60;38.40;;;;;;5088151;28;20039;-54
2022/09/03 09:30:18;;;;;;;2.22;1.10;;;37.90;37.80;;;;;;5089281;28;20028;-55
2022/09/03 09:32:46;;;;;;;2.67;1.20;;;37.60;37.90;;;;;;5087080;28;20024;-54
2022/09/03 09:35:12;;;;;;;3.60;1.40;;;37.40;37.70;;;;;;5088821;28;20024;-54
2022/09/03 09:37:52;;;;;;;4.15;1.48;;;37.50;36.90;;;;;;5088902;28;20028;-54
2022/09/03 09:40:25;;;;;;;2.85;1.27;;;37.80;36.80;;;;;;5088866;28;20043;-55
2022/09/03 09:42:57;;;;;;;3.42;1.35;;;37.40;37.70;;;;;;5088332;28;20035;-54
2022/09/03 09:45:23;;;;;;;4.38;1.10;;;37.90;37.20;;;;;;5089215;28;20036;-55
2022/09/03 09:47:54;;;;;;;4.72;1.38;;;37.90;35.90;;;;;;5089153;28;20034;-54
2022/09/03 09:50:21;;;;;;;1.30;1.08;;;37.10;37.00;;;;;;5083323;28;20398;-54
2022/09/03 09:52:46;;;;;;;1.40;1.15;;;38.00;36.50;;;;;;5081047;28;20035;-55
2022/09/03 09:55:18;;;;;;;6.95;1.40;;;37.60;37.40;;;;;;5088874;28;20024;-55
2022/09/03 09:57:44;;;;;;;3.83;1.38;;;37.60;36.30;;;;;;5088609;28;20026;-55
2022/09/03 10:00:15;;;;;;;2.78;1.30;;;38.10;36.10;;;;;;5073657;28;20799;-56
2022/09/03 10:02:55;;;;;;;3.38;0.90;;;38.30;36.00;;;;;;5069161;28;20028;-56
2022/09/03 10:05:26;;;;;;;2.13;1.15;;;38.30;35.50;;;;;;5069255;28;20060;-56
2022/09/03 10:07:57;;;;;;;3.85;1.00;;;38.90;35.00;;;;;;5070152;28;20027;-55
2022/09/03 10:10:24;;;;;;;1.63;1.30;;;39.30;35.10;;;;;;5070006;28;20100;-56
2022/09/03 10:12:58;;;;;;;1.90;1.20;;;39.50;35.00;;;;;;5068760;28;20078;-55
2022/09/03 10:15:52;;;;;;;5.85;1.70;;;39.20;34.60;;;;;;5065660;28;20538;-56
2022/09/03 10:18:38;;;;;;;1.38;1.02;;;39.20;34.70;;;;;;5072650;28;20401;-46
2022/09/03 10:21:10;;;;;;;1.67;1.25;;;39.60;34.10;;;;;;5079946;28;20016;-49
2022/09/03 10:24:03;;;;;;;7.03;1.55;;;38.40;35.50;;;;;;5078294;28;20021;-47
2022/09/03 10:26:30;;;;;;;2.75;1.50;;;38.80;34.70;;;;;;5081714;28;20510;-46
2022/09/03 10:29:19;;;;;;;3.05;1.35;;;39.10;34.20;;;;;;5079951;28;20047;-48
2022/09/03 10:31:54;;;;;;;1.17;1.03;;;39.50;33.20;;;;;;5069572;28;20040;-46
2022/09/03 10:34:33;;;;;;;4.55;1.20;;;39.60;33.20;;;;;;5070743;28;20102;-48
2022/09/03 10:37:17;;;;;;;1.95;1.27;;;37.70;34.80;;;;;;5073704;28;20064;-46
2022/09/03 10:40:06;;;;;;;3.10;1.27;;;37.60;35.00;;;;;;5083705;28;20024;-48
2022/09/03 10:42:36;;;;;;;4.05;1.13;;;37.90;35.10;;;;;;5085698;28;20035;-48
2022/09/03 10:45:22;;;;;;;2.13;1.10;;;37.30;34.10;;;;;;5086316;28;20032;-48
2022/09/03 10:48:17;;;;;;;5.88;1.17;;;37.00;33.40;;;;;;5087778;28;20032;-47
2022/09/03 10:50:50;;;;;;;3.47;1.52;;;37.80;33.60;;;;;;5078914;28;20020;-47
2022/09/03 10:53:22;;;;;;;1.70;1.30;;;36.00;34.10;;;;;;5070262;28;20051;-46
2022/09/03 10:56:11;;;;;;;3.35;1.13;;;35.90;35.50;;;;;;5067293;28;20016;-48
2022/09/03 10:58:58;;;;;;;27.98;23.00;;;36.90;33.70;;;;;;5067406;28;20495;-48
2022/09/03 11:01:42;;;;;;;3.85;1.60;;;35.40;34.80;;;;;;5066252;28;20043;-45
2022/09/03 11:04:30;;;;;;;4.00;1.80;;;35.20;34.70;;;;;;5062913;28;20024;-49
2022/09/03 11:07:04;;;;;;;4.83;2.87;;;35.40;35.20;;;;;;5068610;28;20077;-46
2022/09/03 11:09:47;;;;;;;4.05;1.48;;;35.80;35.40;;;;;;5072989;28;20388;-48
2022/09/03 11:12:24;;;;;;;1.80;1.70;;;36.70;35.20;;;;;;5068768;28;20033;-49
2022/09/03 11:14:54;;;;;;;9.13;5.32;;;37.50;33.70;;;;;;5078395;28;20088;-47
2022/09/03 11:17:28;;;;;;;2.63;1.70;;;36.80;34.50;;;;;;5088167;28;20012;-47
2022/09/03 11:20:13;;;;;;;3.00;1.70;;;36.70;34.00;;;;;;5087801;28;20020;-46
2022/09/03 11:22:40;;;;;;;10.73;4.07;;;37.30;33.90;;;;;;5071680;28;20476;-45
2022/09/03 11:25:07;;;;;;;3.10;2.00;;;37.60;34.80;;;;;;5088224;28;20483;-48
2022/09/03 11:27:42;;;;;;;4.88;1.73;;;37.70;34.60;;;;;;5088312;28;20107;-47
2022/09/03 11:30:33;;;;;;;2.25;1.33;;;37.30;34.10;;;;;;5088388;28;20032;-46
2022/09/03 11:33:05;;;;;;;5.35;2.10;;;37.20;33.90;;;;;;5071842;28;20503;-46
2022/09/03 11:35:30;;;;;;;2.67;1.50;;;36.90;34.50;;;;;;5088080;28;20083;-47
2022/09/03 11:38:30;;;;;;;3.92;1.50;;;37.00;34.30;;;;;;5080327;28;20063;-46
2022/09/03 11:41:24;;;;;;;5.15;1.55;;;37.30;34.90;;;;;;5050471;28;20051;-46
2022/09/03 11:43:50;;;;;;;4.28;1.30;;;36.70;34.40;;;;;;5058286;28;20025;-47
2022/09/03 11:46:22;;;;;;;3.92;1.70;;;36.80;34.20;;;;;;5063215;28;20025;-49
2022/09/03 11:48:50;;;;;;;6.25;1.70;;;36.90;34.40;;;;;;5067617;28;20029;-49
2022/09/03 11:51:29;;;;;;;4.50;1.95;;;36.70;34.30;;;;;;5069557;28;20480;-48
2022/09/03 11:53:58;;;;;;;2.58;1.45;;;36.70;33.80;;;;;;5053037;28;20036;-47
2022/09/03 11:56:24;;;;;;;2.83;1.30;;;36.90;34.10;;;;;;5051504;28;20021;-46
2022/09/03 11:59:15;;;;;;;2.95;1.98;;;36.50;34.00;;;;;;5051548;28;20583;-47
2022/09/03 12:02:01;;;;;;;2.97;1.90;;;36.00;35.30;;;;;;5050930;28;20267;-46
2022/09/03 12:04:39;;;;;;;55.78;49.67;;;35.90;35.40;;;;;;5051426;28;20519;-48
2022/09/03 12:07:26;;;;;;;56.00;49.58;;;36.00;34.60;;;;;;5051211;28;20032;-49
2022/09/03 12:10:00;;;;;;;4.70;2.35;;;35.40;34.40;;;;;;5078482;28;20417;-47
2022/09/03 12:12:32;;;;;;;5.00;1.73;;;35.10;35.30;;;;;;5077243;28;20028;-47
2022/09/03 12:15:22;;;;;;;7.15;1.60;;;34.70;35.20;;;;;;5053673;28;20349;-46
2022/09/03 12:20:42;;;;;;;1.90;1.52;;;33.70;35.70;;;;;;5081092;28;20063;-46
2022/09/03 12:23:38;;;;;;;5.68;1.52;;;32.50;36.90;;;;;;5085531;28;20020;-46
2022/09/03 12:26:13;;;;;;;3.38;1.65;;;31.80;38.10;;;;;;5091325;28;20459;-48
2022/09/03 12:28:40;;;;;;;6.57;1.90;;;31.30;39.30;;;;;;5091346;28;20107;-46
2022/09/03 12:31:24;;;;;;;3.10;1.23;;;31.00;38.70;;;;;;5090401;28;20032;-46
2022/09/03 12:33:54;;;;;;;6.82;2.67;;;30.80;38.30;;;;;;5091170;28;20024;-45
2022/09/03 12:36:21;;;;;;;3.90;1.85;;;30.60;39.30;;;;;;5089022;28;20368;-46
2022/09/03 12:38:47;;;;;;;5.40;2.00;;;30.70;38.90;;;;;;5082678;28;20348;-46
2022/09/03 12:41:28;;;;;;;1.85;1.17;;;30.60;38.90;;;;;;5090288;28;20046;-45
2022/09/03 12:43:56;;;;;;;3.22;1.65;;;30.50;39.00;;;;;;5083132;28;20024;-46
2022/09/03 12:46:27;;;;;;;3.67;1.50;;;30.30;39.40;;;;;;5070474;28;20572;-47
2022/09/03 12:49:02;;;;;;;3.53;1.63;;;30.10;39.40;;;;;;5070653;28;20111;-47
2022/09/03 12:51:35;;;;;;;1.88;1.70;;;30.10;40.00;;;;;;5073282;28;20415;-49
2022/09/03 12:54:02;;;;;;;2.58;2.03;;;30.00;40.60;;;;;;5085755;28;20371;-49
2022/09/03 12:56:31;;;;;;;5.25;1.80;;;30.00;40.10;;;;;;5090944;28;20360;-48
2022/09/03 12:59:03;;;;;;;2.97;1.65;;;29.60;40.30;;;;;;5091032;28;20028;-46
2022/09/03 13:01:33;;;;;;;6.80;2.40;;;29.00;40.20;;;;;;5089684;28;20238;-45
2022/09/03 13:04:14;;;;;;;2.22;1.35;;;28.90;41.30;;;;;;5090624;28;20035;-45
2022/09/03 13:06:49;;;;;;;;;;;28.50;41.70;;;;;;5087742;28;20061;-46
2022/09/03 13:09:30;;;;;;;4.45;1.48;;;28.60;40.80;;;;;;5076626;28;19909;-45
2022/09/03 13:11:57;;;;;;;5.32;1.92;;;28.50;41.80;;;;;;5076183;28;20080;-47
2022/09/03 13:14:25;;;;;;;53.88;40.50;;;28.40;41.90;;;;;;5066934;28;20012;-45
2022/09/03 13:17:01;;;;;;;10.48;9.00;;;28.50;42.80;;;;;;5069913;28;20059;-45
2022/09/03 13:19:39;;;;;;;4.80;1.98;;;28.40;42.20;;;;;;5075836;28;20258;-45
2022/09/03 13:22:16;;;;;;;3.53;1.80;;;28.50;41.70;;;;;;5078512;28;20020;-46